Sichem Montreal — 9VLS2 — position and weather

sailwx.info

Track history (hours):
 
Tides and Currents Weather Stations Pressure Air Temp Water Temp Dewpoint Dewpoint Depression Visibility Wind Speed Wind Dir Waves Ship Positions

Sichem Montreal

Last reported at 2015-Jan-22 12:33 UTC. Time now 2015-Aug-02 00:13 UTC.
Position N 22°26' E 119°54'.
Warning: this ship's position is months out of date.

Length 128 m; draft 6 m.

Type: Ship. MMSI: 565884000.

Date/timePositionNaut miles runAvg speedWind from/ knotsBaromVisibWave heightAir tempDewpointWater temp
2015-Jan-22 12:33N 22°26' E 119°54'1413.5
2015-Jan-22 11:33N 22°39' E 119°54'1312.9
2015-Jan-22 10:32N 22°52' E 119°54'  
2015-Jan-16 08:19N 30°32' E 123°00'1013.4
2015-Jan-16 07:33N 30°35' E 122°49'1313.1
2015-Jan-16 06:33N 30°44' E 122°38'3 3.0
2015-Jan-16 05:29N 30°47' E 122°38'0 0.0
2015-Jan-16 04:29N 30°47' E 122°38'0 0.0
2015-Jan-16 03:29N 30°47' E 122°38'0 0.1
2015-Jan-16 02:29N 30°47' E 122°38'0 0.0
2015-Jan-16 01:29N 30°47' E 122°38'0 0.1
2015-Jan-16 00:29N 30°47' E 122°38'0 0.2
2015-Jan-15 23:29N 30°47' E 122°38'0 0.0
2015-Jan-15 22:29N 30°47' E 122°38'0 0.0
2015-Jan-15 21:29N 30°47' E 122°38'0 0.0
2015-Jan-15 20:29N 30°47' E 122°38'0 0.0
2015-Jan-15 19:29N 30°47' E 122°38'0 0.1
2015-Jan-15 18:29N 30°47' E 122°38'0 0.1
2015-Jan-15 17:29N 30°47' E 122°38'0 0.0
2015-Jan-15 16:29N 30°47' E 122°38'0 0.1
2015-Jan-15 15:29N 30°47' E 122°38'0 0.0
2015-Jan-15 14:29N 30°47' E 122°38'0 0.0
2015-Jan-15 13:23N 30°47' E 122°38'0 0.0
2015-Jan-15 12:29N 30°47' E 122°38'0 0.1
2015-Jan-15 11:23N 30°47' E 122°38'0 0.0
2015-Jan-15 10:29N 30°47' E 122°38'0 0.1
2015-Jan-15 09:29N 30°47' E 122°38'0 0.0
2015-Jan-15 08:23N 30°47' E 122°38'0 0.0
2015-Jan-15 07:29N 30°47' E 122°38'0 0.0
2015-Jan-14 10:29N 30°47' E 122°38'1 1.4
2015-Jan-14 09:33N 30°47' E 122°37'1111.6
2015-Jan-14 08:34N 30°57' E 122°31'1211.7
2015-Jan-14 07:33N 31°02' E 122°19'1212.1
2015-Jan-14 06:34N 31°04' E 122°05'1010.1
2015-Jan-14 05:33N 31°08' E 121°54'1514.6
2015-Jan-14 04:33N 31°19' E 121°42'1211.8
2015-Jan-14 03:33N 31°25' E 121°31'1111.3
2015-Jan-14 02:33N 31°32' E 121°21'1313.4
2015-Jan-14 01:33N 31°42' E 121°09'1312.6
2015-Jan-14 00:34N 31°47' E 120°56'4 3.7
2015-Jan-13 23:26N 31°51' E 120°54'0 0.0
2015-Jan-13 22:26N 31°51' E 120°54'0 0.1
2015-Jan-13 21:32N 31°51' E 120°54'0 0.1
2015-Jan-13 20:32N 31°51' E 120°54'0 0.0
2015-Jan-13 19:29N 31°51' E 120°54'0 0.0
2015-Jan-13 18:32N 31°51' E 120°54'0 0.0
2015-Jan-13 17:20N 31°51' E 120°54'0 0.0
2015-Jan-13 16:32N 31°51' E 120°54'0 0.2
2015-Jan-13 15:33N 31°51' E 120°54'7 7.2
2015-Jan-13 14:33N 31°58' E 120°51'1010.1
2015-Jan-13 13:34N 31°60' E 120°40'8 8.2
2015-Jan-13 12:34N 32°04' E 120°32'0 0.0
2015-Jan-13 11:33N 32°04' E 120°32'0 0.0
2015-Jan-13 10:33N 32°04' E 120°32'0 0.0
2015-Jan-13 09:27N 32°04' E 120°32'0 0.0
2015-Jan-13 08:33N 32°04' E 120°32'0 0.0
2015-Jan-13 07:33N 32°04' E 120°32'0 0.0
2015-Jan-13 06:33N 32°04' E 120°32'0 0.0
2015-Jan-13 05:33N 32°04' E 120°32'0 0.0
2015-Jan-13 04:33N 32°04' E 120°32'0 0.0
2015-Jan-13 03:33N 32°04' E 120°32'0 0.0
2015-Jan-13 02:33N 32°04' E 120°32'0 0.0
2015-Jan-13 01:33N 32°04' E 120°32'0 0.0
2015-Jan-13 00:33N 32°04' E 120°32'0 0.0
2015-Jan-12 23:30N 32°04' E 120°32'0 0.0
2015-Jan-12 22:33N 32°04' E 120°32'0 0.0
2015-Jan-12 21:30N 32°04' E 120°32'0 0.0
2015-Jan-12 20:33N 32°04' E 120°32'0 0.0
2015-Jan-12 19:33N 32°04' E 120°32'0 0.0
2015-Jan-12 18:27N 32°04' E 120°32'0 0.0
2015-Jan-12 17:33N 32°04' E 120°32'0 0.0
2015-Jan-12 16:33N 32°04' E 120°32'0 0.0
2015-Jan-12 15:33N 32°04' E 120°32'0 0.0
2015-Jan-12 14:33N 32°04' E 120°32'0 0.0
2015-Jan-12 13:33N 32°04' E 120°32'  
Track history (hours):
 
Tides and Currents Weather Stations Pressure Air Temp Water Temp Dewpoint Dewpoint Depression Visibility Wind Speed Wind Dir Waves Ship Positions

Sichem Montreal

Last reported at 2015-Jan-22 12:33 UTC. Time now 2015-Aug-02 00:13 UTC.
Position N 22°26' E 119°54'.
Warning: this ship's position is months out of date.

Length 128 m; draft 6 m.

Type: Ship. MMSI: 565884000.

Date/timePositionNaut miles runAvg speedWind from/ knotsBaromVisibWave heightAir tempDewpointWater temp
2015-Jan-22 12:33N 22°26' E 119°54'1413.5
2015-Jan-22 11:33N 22°39' E 119°54'1312.9
2015-Jan-22 10:32N 22°52' E 119°54'  
2015-Jan-16 08:19N 30°32' E 123°00'1013.4
2015-Jan-16 07:33N 30°35' E 122°49'1313.1
2015-Jan-16 06:33N 30°44' E 122°38'3 3.0
2015-Jan-16 05:29N 30°47' E 122°38'0 0.0
2015-Jan-16 04:29N 30°47' E 122°38'0 0.0
2015-Jan-16 03:29N 30°47' E 122°38'0 0.1
2015-Jan-16 02:29N 30°47' E 122°38'0 0.0
2015-Jan-16 01:29N 30°47' E 122°38'0 0.1
2015-Jan-16 00:29N 30°47' E 122°38'0 0.2
2015-Jan-15 23:29N 30°47' E 122°38'0 0.0
2015-Jan-15 22:29N 30°47' E 122°38'0 0.0
2015-Jan-15 21:29N 30°47' E 122°38'0 0.0
2015-Jan-15 20:29N 30°47' E 122°38'0 0.0
2015-Jan-15 19:29N 30°47' E 122°38'0 0.1
2015-Jan-15 18:29N 30°47' E 122°38'0 0.1
2015-Jan-15 17:29N 30°47' E 122°38'0 0.0
2015-Jan-15 16:29N 30°47' E 122°38'0 0.1
2015-Jan-15 15:29N 30°47' E 122°38'0 0.0
2015-Jan-15 14:29N 30°47' E 122°38'0 0.0
2015-Jan-15 13:23N 30°47' E 122°38'0 0.0
2015-Jan-15 12:29N 30°47' E 122°38'0 0.1
2015-Jan-15 11:23N 30°47' E 122°38'0 0.0
2015-Jan-15 10:29N 30°47' E 122°38'0 0.1
2015-Jan-15 09:29N 30°47' E 122°38'0 0.0
2015-Jan-15 08:23N 30°47' E 122°38'0 0.0
2015-Jan-15 07:29N 30°47' E 122°38'0 0.0
2015-Jan-14 10:29N 30°47' E 122°38'1 1.4
2015-Jan-14 09:33N 30°47' E 122°37'1111.6
2015-Jan-14 08:34N 30°57' E 122°31'1211.7
2015-Jan-14 07:33N 31°02' E 122°19'1212.1
2015-Jan-14 06:34N 31°04' E 122°05'1010.1
2015-Jan-14 05:33N 31°08' E 121°54'1514.6
2015-Jan-14 04:33N 31°19' E 121°42'1211.8
2015-Jan-14 03:33N 31°25' E 121°31'1111.3
2015-Jan-14 02:33N 31°32' E 121°21'1313.4
2015-Jan-14 01:33N 31°42' E 121°09'1312.6
2015-Jan-14 00:34N 31°47' E 120°56'4 3.7
2015-Jan-13 23:26N 31°51' E 120°54'0 0.0
2015-Jan-13 22:26N 31°51' E 120°54'0 0.1
2015-Jan-13 21:32N 31°51' E 120°54'0 0.1
2015-Jan-13 20:32N 31°51' E 120°54'0 0.0
2015-Jan-13 19:29N 31°51' E 120°54'0 0.0
2015-Jan-13 18:32N 31°51' E 120°54'0 0.0
2015-Jan-13 17:20N 31°51' E 120°54'0 0.0
2015-Jan-13 16:32N 31°51' E 120°54'0 0.2
2015-Jan-13 15:33N 31°51' E 120°54'7 7.2
2015-Jan-13 14:33N 31°58' E 120°51'1010.1
2015-Jan-13 13:34N 31°60' E 120°40'8 8.2
2015-Jan-13 12:34N 32°04' E 120°32'0 0.0
2015-Jan-13 11:33N 32°04' E 120°32'0 0.0
2015-Jan-13 10:33N 32°04' E 120°32'0 0.0
2015-Jan-13 09:27N 32°04' E 120°32'0 0.0
2015-Jan-13 08:33N 32°04' E 120°32'0 0.0
2015-Jan-13 07:33N 32°04' E 120°32'0 0.0
2015-Jan-13 06:33N 32°04' E 120°32'0 0.0
2015-Jan-13 05:33N 32°04' E 120°32'0 0.0
2015-Jan-13 04:33N 32°04' E 120°32'0 0.0
2015-Jan-13 03:33N 32°04' E 120°32'0 0.0
2015-Jan-13 02:33N 32°04' E 120°32'0 0.0
2015-Jan-13 01:33N 32°04' E 120°32'0 0.0
2015-Jan-13 00:33N 32°04' E 120°32'0 0.0
2015-Jan-12 23:30N 32°04' E 120°32'0 0.0
2015-Jan-12 22:33N 32°04' E 120°32'0 0.0
2015-Jan-12 21:30N 32°04' E 120°32'0 0.0
2015-Jan-12 20:33N 32°04' E 120°32'0 0.0
2015-Jan-12 19:33N 32°04' E 120°32'0 0.0
2015-Jan-12 18:27N 32°04' E 120°32'0 0.0
2015-Jan-12 17:33N 32°04' E 120°32'0 0.0
2015-Jan-12 16:33N 32°04' E 120°32'0 0.0
2015-Jan-12 15:33N 32°04' E 120°32'0 0.0
2015-Jan-12 14:33N 32°04' E 120°32'0 0.0
2015-Jan-12 13:33N 32°04' E 120°32'  

Dump ship's entire track history